Faulkner, Maryland
Current Conditions -  °F | °C
As of 5:56 AM on Friday 28 Nov 2014 (Local Time) from KNYG Reporting Station
Clear Clear  
Wind Chill: 25°   Ceiling: Unl
Heat Index: 33°   Visibility: 10mi
Dew Point: 21°   Wind: 10mph
Humidity: 61%   Direction: 320°NW
Pressure: 30.29"   Gusts: NA
Location:  38.44°N, 76.98°W
Report Text: KNYG 281056Z AUTO 32009KT 10SM CLR 01/M06 A3029 RMK AO2 SLP257 T00061061 FZRANO $
Loading
Personal Weather Stations






























Interactive Weather Map New forecast layout! Learn more

10-Day Weather Forecast

Advertisements
Track Severe Weather on mobile